sensor_id;sensor_type;location;lat;lon;timestamp;temperature;humidity
58153;DHT22;43967;51.634;5.566;2023-07-20T00:02:27;24.10;56.50
58153;DHT22;43967;51.634;5.566;2023-07-20T00:07:48;24.10;56.50
58153;DHT22;43967;51.634;5.566;2023-07-20T00:13:11;24.10;56.60
58153;DHT22;43967;51.634;5.566;2023-07-20T00:18:32;24.10;56.60
58153;DHT22;43967;51.634;5.566;2023-07-20T00:23:54;24.10;56.60
58153;DHT22;43967;51.634;5.566;2023-07-20T00:29:17;24.10;56.60
58153;DHT22;43967;51.634;5.566;2023-07-20T00:34:40;24.10;56.70
58153;DHT22;43967;51.634;5.566;2023-07-20T00:40:01;24.10;56.70
58153;DHT22;43967;51.634;5.566;2023-07-20T00:45:23;24.10;56.70
58153;DHT22;43967;51.634;5.566;2023-07-20T00:50:46;24.10;56.80
58153;DHT22;43967;51.634;5.566;2023-07-20T00:56:08;24.10;56.80
58153;DHT22;43967;51.634;5.566;2023-07-20T01:01:29;24.00;56.80
58153;DHT22;43967;51.634;5.566;2023-07-20T01:07:12;24.10;56.80
58153;DHT22;43967;51.634;5.566;2023-07-20T01:12:42;24.10;56.90
58153;DHT22;43967;51.634;5.566;2023-07-20T01:18:03;24.00;56.90
58153;DHT22;43967;51.634;5.566;2023-07-20T01:35:02;24.00;57.60
58153;DHT22;43967;51.634;5.566;2023-07-20T01:40:25;24.00;57.00
58153;DHT22;43967;51.634;5.566;2023-07-20T01:45:47;24.00;57.00
58153;DHT22;43967;51.634;5.566;2023-07-20T01:51:08;24.00;57.10
58153;DHT22;43967;51.634;5.566;2023-07-20T01:56:30;24.00;57.00
58153;DHT22;43967;51.634;5.566;2023-07-20T02:01:51;24.00;57.00
58153;DHT22;43967;51.634;5.566;2023-07-20T02:07:13;24.00;57.10
58153;DHT22;43967;51.634;5.566;2023-07-20T02:12:34;24.00;57.10
58153;DHT22;43967;51.634;5.566;2023-07-20T02:17:56;24.00;57.10
58153;DHT22;43967;51.634;5.566;2023-07-20T02:23:17;24.00;57.10
58153;DHT22;43967;51.634;5.566;2023-07-20T02:28:38;23.90;57.20
58153;DHT22;43967;51.634;5.566;2023-07-20T02:33:59;23.90;57.10
58153;DHT22;43967;51.634;5.566;2023-07-20T02:39:21;23.90;57.10
58153;DHT22;43967;51.634;5.566;2023-07-20T02:44:42;23.90;57.10
58153;DHT22;43967;51.634;5.566;2023-07-20T02:50:07;23.90;57.20
58153;DHT22;43967;51.634;5.566;2023-07-20T02:55:28;23.90;57.20
58153;DHT22;43967;51.634;5.566;2023-07-20T03:00:49;23.90;57.20
58153;DHT22;43967;51.634;5.566;2023-07-20T03:06:11;23.90;57.20
58153;DHT22;43967;51.634;5.566;2023-07-20T03:11:32;23.90;57.20
58153;DHT22;43967;51.634;5.566;2023-07-20T03:16:56;23.90;57.20
58153;DHT22;43967;51.634;5.566;2023-07-20T03:22:18;23.90;57.30
58153;DHT22;43967;51.634;5.566;2023-07-20T03:27:39;23.90;57.30
58153;DHT22;43967;51.634;5.566;2023-07-20T03:33:01;23.90;57.30
58153;DHT22;43967;51.634;5.566;2023-07-20T03:38:22;23.90;57.30
58153;DHT22;43967;51.634;5.566;2023-07-20T03:43:44;23.90;57.30
58153;DHT22;43967;51.634;5.566;2023-07-20T03:49:05;23.80;57.20
58153;DHT22;43967;51.634;5.566;2023-07-20T03:54:26;23.80;57.20
58153;DHT22;43967;51.634;5.566;2023-07-20T03:59:48;23.80;58.00
58153;DHT22;43967;51.634;5.566;2023-07-20T04:05:10;23.80;57.20
58153;DHT22;43967;51.634;5.566;2023-07-20T04:10:31;23.80;57.20
58153;DHT22;43967;51.634;5.566;2023-07-20T04:15:52;23.80;57.30
58153;DHT22;43967;51.634;5.566;2023-07-20T04:21:14;23.80;57.30
58153;DHT22;43967;51.634;5.566;2023-07-20T04:26:37;23.80;57.20
58153;DHT22;43967;51.634;5.566;2023-07-20T04:31:59;23.80;57.20
58153;DHT22;43967;51.634;5.566;2023-07-20T04:37:20;23.80;57.20
58153;DHT22;43967;51.634;5.566;2023-07-20T04:42:41;23.80;57.20
58153;DHT22;43967;51.634;5.566;2023-07-20T04:48:05;23.90;57.20
58153;DHT22;43967;51.634;5.566;2023-07-20T04:53:27;23.80;57.10
58153;DHT22;43967;51.634;5.566;2023-07-20T04:58:49;23.80;57.10
58153;DHT22;43967;51.634;5.566;2023-07-20T05:04:10;23.80;57.10
58153;DHT22;43967;51.634;5.566;2023-07-20T05:09:31;23.80;57.10
58153;DHT22;43967;51.634;5.566;2023-07-20T05:14:53;23.80;57.10
58153;DHT22;43967;51.634;5.566;2023-07-20T05:20:14;23.80;57.10
58153;DHT22;43967;51.634;5.566;2023-07-20T05:25:36;23.80;57.60
58153;DHT22;43967;51.634;5.566;2023-07-20T05:30:57;23.70;57.70
58153;DHT22;43967;51.634;5.566;2023-07-20T05:36:18;23.50;58.20
58153;DHT22;43967;51.634;5.566;2023-07-20T05:41:39;23.40;58.70
58153;DHT22;43967;51.634;5.566;2023-07-20T05:47:01;23.40;59.00
58153;DHT22;43967;51.634;5.566;2023-07-20T05:52:22;23.60;58.30
58153;DHT22;43967;51.634;5.566;2023-07-20T05:57:43;23.70;57.70
58153;DHT22;43967;51.634;5.566;2023-07-20T06:03:05;23.90;57.50
58153;DHT22;43967;51.634;5.566;2023-07-20T06:08:26;24.00;57.30
58153;DHT22;43967;51.634;5.566;2023-07-20T06:13:47;24.00;57.10
58153;DHT22;43967;51.634;5.566;2023-07-20T06:19:09;24.00;57.00
58153;DHT22;43967;51.634;5.566;2023-07-20T06:24:30;24.20;56.70
58153;DHT22;43967;51.634;5.566;2023-07-20T06:29:51;24.30;56.80
58153;DHT22;43967;51.634;5.566;2023-07-20T06:35:13;24.30;56.70
58153;DHT22;43967;51.634;5.566;2023-07-20T06:40:34;24.70;55.70
58153;DHT22;43967;51.634;5.566;2023-07-20T06:45:55;27.10;50.20
58153;DHT22;43967;51.634;5.566;2023-07-20T06:51:17;27.00;50.30
58153;DHT22;43967;51.634;5.566;2023-07-20T06:56:38;25.80;53.00
58153;DHT22;43967;51.634;5.566;2023-07-20T07:01:59;29.70;44.90
58153;DHT22;43967;51.634;5.566;2023-07-20T07:12:42;29.50;60.20
58153;DHT22;43967;51.634;5.566;2023-07-20T07:18:03;27.20;65.30
58153;DHT22;43967;51.634;5.566;2023-07-20T07:23:25;27.10;66.10
58153;DHT22;43967;51.634;5.566;2023-07-20T07:28:46;30.30;60.40
58153;DHT22;43967;51.634;5.566;2023-07-20T07:34:07;30.90;58.80
58153;DHT22;43967;51.634;5.566;2023-07-20T07:39:28;28.70;65.80
58153;DHT22;43967;51.634;5.566;2023-07-20T07:44:50;27.30;67.20
58153;DHT22;43967;51.634;5.566;2023-07-20T07:50:11;26.60;67.30
58153;DHT22;43967;51.634;5.566;2023-07-20T07:55:32;26.20;68.80
58153;DHT22;43967;51.634;5.566;2023-07-20T08:00:54;26.00;67.70
58153;DHT22;43967;51.634;5.566;2023-07-20T08:06:15;25.80;68.10
58153;DHT22;43967;51.634;5.566;2023-07-20T08:11:39;25.80;68.60
58153;DHT22;43967;51.634;5.566;2023-07-20T08:17:01;25.60;67.90
58153;DHT22;43967;51.634;5.566;2023-07-20T08:22:22;25.50;68.20
58153;DHT22;43967;51.634;5.566;2023-07-20T08:27:43;25.50;67.00
58153;DHT22;43967;51.634;5.566;2023-07-20T08:33:05;25.50;67.40
58153;DHT22;43967;51.634;5.566;2023-07-20T08:38:26;25.40;69.80
58153;DHT22;43967;51.634;5.566;2023-07-20T08:43:48;25.20;69.90
58153;DHT22;43967;51.634;5.566;2023-07-20T08:49:11;25.20;69.10
58153;DHT22;43967;51.634;5.566;2023-07-20T08:54:33;25.00;69.50
58153;DHT22;43967;51.634;5.566;2023-07-20T08:59:55;24.90;69.50
58153;DHT22;43967;51.634;5.566;2023-07-20T09:05:18;24.90;69.40
58153;DHT22;43967;51.634;5.566;2023-07-20T09:10:39;24.80;70.60
58153;DHT22;43967;51.634;5.566;2023-07-20T09:16:01;24.80;70.50
58153;DHT22;43967;51.634;5.566;2023-07-20T09:21:22;24.90;69.90
58153;DHT22;43967;51.634;5.566;2023-07-20T09:26:45;24.90;70.20
58153;DHT22;43967;51.634;5.566;2023-07-20T09:32:07;24.90;69.10
58153;DHT22;43967;51.634;5.566;2023-07-20T09:37:28;24.90;69.10
58153;DHT22;43967;51.634;5.566;2023-07-20T09:42:52;24.90;70.10
58153;DHT22;43967;51.634;5.566;2023-07-20T09:48:14;24.90;70.20
58153;DHT22;43967;51.634;5.566;2023-07-20T09:53:36;25.00;70.10
58153;DHT22;43967;51.634;5.566;2023-07-20T09:58:58;24.90;70.90
58153;DHT22;43967;51.634;5.566;2023-07-20T10:04:21;24.80;70.90
58153;DHT22;43967;51.634;5.566;2023-07-20T10:09:46;24.70;70.30
58153;DHT22;43967;51.634;5.566;2023-07-20T10:20:54;24.90;71.30
58153;DHT22;43967;51.634;5.566;2023-07-20T10:26:16;24.90;68.90
58153;DHT22;43967;51.634;5.566;2023-07-20T10:31:38;25.00;68.30
58153;DHT22;43967;51.634;5.566;2023-07-20T10:36:59;24.90;67.70
58153;DHT22;43967;51.634;5.566;2023-07-20T10:42:21;24.90;68.80
58153;DHT22;43967;51.634;5.566;2023-07-20T10:47:46;24.90;70.60
58153;DHT22;43967;51.634;5.566;2023-07-20T10:53:25;24.90;71.10
58153;DHT22;43967;51.634;5.566;2023-07-20T10:58:47;24.80;70.40
58153;DHT22;43967;51.634;5.566;2023-07-20T11:04:08;24.80;70.60
58153;DHT22;43967;51.634;5.566;2023-07-20T11:09:34;24.90;69.90
58153;DHT22;43967;51.634;5.566;2023-07-20T11:14:57;24.80;69.90
58153;DHT22;43967;51.634;5.566;2023-07-20T11:20:19;24.90;70.70
58153;DHT22;43967;51.634;5.566;2023-07-20T11:25:40;24.80;71.10
58153;DHT22;43967;51.634;5.566;2023-07-20T11:31:02;24.90;70.40
58153;DHT22;43967;51.634;5.566;2023-07-20T11:36:23;25.10;69.80
58153;DHT22;43967;51.634;5.566;2023-07-20T11:41:47;24.80;70.00
58153;DHT22;43967;51.634;5.566;2023-07-20T11:47:10;24.80;69.90
58153;DHT22;43967;51.634;5.566;2023-07-20T11:52:32;24.80;70.80
58153;DHT22;43967;51.634;5.566;2023-07-20T11:58:04;24.90;70.40
58153;DHT22;43967;51.634;5.566;2023-07-20T12:03:26;24.80;71.10
58153;DHT22;43967;51.634;5.566;2023-07-20T12:08:48;24.80;70.90
58153;DHT22;43967;51.634;5.566;2023-07-20T12:14:09;24.80;71.20
58153;DHT22;43967;51.634;5.566;2023-07-20T12:19:31;24.80;70.60
58153;DHT22;43967;51.634;5.566;2023-07-20T12:24:52;24.90;70.70
58153;DHT22;43967;51.634;5.566;2023-07-20T12:30:14;24.80;70.70
58153;DHT22;43967;51.634;5.566;2023-07-20T12:35:36;24.80;68.40
58153;DHT22;43967;51.634;5.566;2023-07-20T12:40:58;24.90;68.60
58153;DHT22;43967;51.634;5.566;2023-07-20T12:46:19;24.90;70.00
58153;DHT22;43967;51.634;5.566;2023-07-20T12:51:40;24.80;69.50
58153;DHT22;43967;51.634;5.566;2023-07-20T12:57:01;24.90;70.40
58153;DHT22;43967;51.634;5.566;2023-07-20T13:02:23;24.90;71.10
58153;DHT22;43967;51.634;5.566;2023-07-20T13:07:44;24.80;71.00
58153;DHT22;43967;51.634;5.566;2023-07-20T13:13:06;24.90;71.50
58153;DHT22;43967;51.634;5.566;2023-07-20T13:18:27;24.90;70.20
58153;DHT22;43967;51.634;5.566;2023-07-20T13:23:49;24.90;69.10
58153;DHT22;43967;51.634;5.566;2023-07-20T13:29:10;24.80;69.00
58153;DHT22;43967;51.634;5.566;2023-07-20T13:34:31;24.90;69.50
58153;DHT22;43967;51.634;5.566;2023-07-20T13:39:52;24.90;70.20
58153;DHT22;43967;51.634;5.566;2023-07-20T13:45:14;24.90;70.30
58153;DHT22;43967;51.634;5.566;2023-07-20T13:50:35;24.90;69.30
58153;DHT22;43967;51.634;5.566;2023-07-20T13:55:56;25.10;70.00
58153;DHT22;43967;51.634;5.566;2023-07-20T14:01:18;25.10;69.60
58153;DHT22;43967;51.634;5.566;2023-07-20T14:06:43;25.00;68.20
58153;DHT22;43967;51.634;5.566;2023-07-20T14:12:04;24.90;68.20
58153;DHT22;43967;51.634;5.566;2023-07-20T14:17:26;24.90;68.50
58153;DHT22;43967;51.634;5.566;2023-07-20T14:22:47;24.90;67.50
58153;DHT22;43967;51.634;5.566;2023-07-20T14:28:08;24.90;68.30
58153;DHT22;43967;51.634;5.566;2023-07-20T14:33:30;25.00;69.30
58153;DHT22;43967;51.634;5.566;2023-07-20T14:38:51;24.90;69.90
58153;DHT22;43967;51.634;5.566;2023-07-20T14:44:13;25.00;69.70
58153;DHT22;43967;51.634;5.566;2023-07-20T14:49:34;24.90;68.50
58153;DHT22;43967;51.634;5.566;2023-07-20T14:54:55;25.00;69.30
58153;DHT22;43967;51.634;5.566;2023-07-20T15:00:17;25.00;68.30
58153;DHT22;43967;51.634;5.566;2023-07-20T15:05:39;25.00;54.80
58153;DHT22;43967;51.634;5.566;2023-07-20T15:11:00;25.00;55.00
58153;DHT22;43967;51.634;5.566;2023-07-20T15:16:23;25.00;52.10
58153;DHT22;43967;51.634;5.566;2023-07-20T15:21:44;24.80;52.00
58153;DHT22;43967;51.634;5.566;2023-07-20T15:27:06;24.80;52.30
58153;DHT22;43967;51.634;5.566;2023-07-20T15:32:27;24.80;52.00
58153;DHT22;43967;51.634;5.566;2023-07-20T15:37:50;24.80;50.90
58153;DHT22;43967;51.634;5.566;2023-07-20T15:43:11;24.80;51.10
58153;DHT22;43967;51.634;5.566;2023-07-20T15:48:32;24.70;50.30
58153;DHT22;43967;51.634;5.566;2023-07-20T15:53:53;24.70;50.10
58153;DHT22;43967;51.634;5.566;2023-07-20T15:59:16;24.60;50.20
58153;DHT22;43967;51.634;5.566;2023-07-20T16:04:37;24.50;50.00
58153;DHT22;43967;51.634;5.566;2023-07-20T16:09:59;24.40;50.00
58153;DHT22;43967;51.634;5.566;2023-07-20T16:15:21;24.40;50.50
58153;DHT22;43967;51.634;5.566;2023-07-20T16:20:42;24.30;50.50
58153;DHT22;43967;51.634;5.566;2023-07-20T16:26:04;24.30;50.90
58153;DHT22;43967;51.634;5.566;2023-07-20T16:36:47;24.40;58.90
58153;DHT22;43967;51.634;5.566;2023-07-20T16:42:09;24.40;51.80
58153;DHT22;43967;51.634;5.566;2023-07-20T16:47:30;24.40;52.40
58153;DHT22;43967;51.634;5.566;2023-07-20T16:52:53;24.30;52.50
58153;DHT22;43967;51.634;5.566;2023-07-20T16:58:15;24.20;54.40
58153;DHT22;43967;51.634;5.566;2023-07-20T17:03:36;24.10;56.90
58153;DHT22;43967;51.634;5.566;2023-07-20T17:08:57;24.00;58.50
58153;DHT22;43967;51.634;5.566;2023-07-20T17:14:19;23.90;59.20
58153;DHT22;43967;51.634;5.566;2023-07-20T17:19:40;23.90;59.60
58153;DHT22;43967;51.634;5.566;2023-07-20T17:25:01;23.90;60.80
58153;DHT22;43967;51.634;5.566;2023-07-20T17:30:23;23.80;60.90
58153;DHT22;43967;51.634;5.566;2023-07-20T17:35:44;23.60;61.60
58153;DHT22;43967;51.634;5.566;2023-07-20T17:41:05;23.60;62.10
58153;DHT22;43967;51.634;5.566;2023-07-20T17:46:26;23.50;63.50
58153;DHT22;43967;51.634;5.566;2023-07-20T17:51:48;23.50;64.60
58153;DHT22;43967;51.634;5.566;2023-07-20T17:57:09;23.60;64.50
58153;DHT22;43967;51.634;5.566;2023-07-20T18:02:30;23.50;64.30
58153;DHT22;43967;51.634;5.566;2023-07-20T18:07:52;23.50;64.20
58153;DHT22;43967;51.634;5.566;2023-07-20T18:13:13;23.50;63.30
58153;DHT22;43967;51.634;5.566;2023-07-20T18:18:34;23.40;63.30
58153;DHT22;43967;51.634;5.566;2023-07-20T18:23:55;23.50;63.00
58153;DHT22;43967;51.634;5.566;2023-07-20T18:29:17;23.40;63.30
58153;DHT22;43967;51.634;5.566;2023-07-20T18:34:39;23.40;63.40
58153;DHT22;43967;51.634;5.566;2023-07-20T18:40:01;23.40;63.20
58153;DHT22;43967;51.634;5.566;2023-07-20T18:45:22;23.30;62.80
58153;DHT22;43967;51.634;5.566;2023-07-20T18:50:43;23.30;63.30
58153;DHT22;43967;51.634;5.566;2023-07-20T18:56:05;23.20;64.00
58153;DHT22;43967;51.634;5.566;2023-07-20T19:01:26;23.20;64.50
58153;DHT22;43967;51.634;5.566;2023-07-20T19:06:47;23.10;64.70
58153;DHT22;43967;51.634;5.566;2023-07-20T19:12:09;23.00;64.80
58153;DHT22;43967;51.634;5.566;2023-07-20T19:17:31;23.00;65.40
58153;DHT22;43967;51.634;5.566;2023-07-20T19:22:52;23.00;66.00
58153;DHT22;43967;51.634;5.566;2023-07-20T19:28:13;23.00;66.40
58153;DHT22;43967;51.634;5.566;2023-07-20T19:33:35;22.90;66.70
58153;DHT22;43967;51.634;5.566;2023-07-20T19:38:56;23.00;67.00
58153;DHT22;43967;51.634;5.566;2023-07-20T19:44:17;22.90;67.10
58153;DHT22;43967;51.634;5.566;2023-07-20T19:49:39;22.90;66.70
58153;DHT22;43967;51.634;5.566;2023-07-20T19:55:00;22.80;66.60
58153;DHT22;43967;51.634;5.566;2023-07-20T20:00:22;22.80;66.70
58153;DHT22;43967;51.634;5.566;2023-07-20T20:05:43;22.80;66.80
58153;DHT22;43967;51.634;5.566;2023-07-20T20:11:05;22.80;67.00
58153;DHT22;43967;51.634;5.566;2023-07-20T20:16:27;22.70;67.00
58153;DHT22;43967;51.634;5.566;2023-07-20T20:21:49;22.70;67.40
58153;DHT22;43967;51.634;5.566;2023-07-20T20:27:10;22.70;66.90
58153;DHT22;43967;51.634;5.566;2023-07-20T20:32:32;22.80;66.30
58153;DHT22;43967;51.634;5.566;2023-07-20T20:37:53;23.00;65.30
58153;DHT22;43967;51.634;5.566;2023-07-20T20:43:14;23.10;64.80
58153;DHT22;43967;51.634;5.566;2023-07-20T20:48:36;23.20;64.40
58153;DHT22;43967;51.634;5.566;2023-07-20T20:53:58;23.30;64.10
58153;DHT22;43967;51.634;5.566;2023-07-20T20:59:19;23.40;63.90
58153;DHT22;43967;51.634;5.566;2023-07-20T21:04:40;23.30;63.60
58153;DHT22;43967;51.634;5.566;2023-07-20T21:10:02;23.40;63.50
58153;DHT22;43967;51.634;5.566;2023-07-20T21:15:23;23.40;63.30
58153;DHT22;43967;51.634;5.566;2023-07-20T21:20:44;23.40;63.20
58153;DHT22;43967;51.634;5.566;2023-07-20T21:26:06;23.50;63.20
58153;DHT22;43967;51.634;5.566;2023-07-20T21:31:27;23.40;64.00
58153;DHT22;43967;51.634;5.566;2023-07-20T21:36:48;23.40;64.00
58153;DHT22;43967;51.634;5.566;2023-07-20T21:42:10;23.40;63.60
58153;DHT22;43967;51.634;5.566;2023-07-20T21:47:31;23.50;63.30
58153;DHT22;43967;51.634;5.566;2023-07-20T21:52:52;23.50;63.50
58153;DHT22;43967;51.634;5.566;2023-07-20T21:58:14;23.50;63.30
58153;DHT22;43967;51.634;5.566;2023-07-20T22:03:35;23.50;63.30
58153;DHT22;43967;51.634;5.566;2023-07-20T22:08:56;23.50;63.10
58153;DHT22;43967;51.634;5.566;2023-07-20T22:14:18;23.50;63.00
58153;DHT22;43967;51.634;5.566;2023-07-20T22:19:39;23.50;62.80
58153;DHT22;43967;51.634;5.566;2023-07-20T22:25:01;23.50;62.70
58153;DHT22;43967;51.634;5.566;2023-07-20T22:30:22;23.50;62.60
58153;DHT22;43967;51.634;5.566;2023-07-20T22:35:43;23.50;62.50
58153;DHT22;43967;51.634;5.566;2023-07-20T22:41:05;23.50;62.40
58153;DHT22;43967;51.634;5.566;2023-07-20T22:46:26;23.50;62.30
58153;DHT22;43967;51.634;5.566;2023-07-20T22:51:47;23.50;62.20
58153;DHT22;43967;51.634;5.566;2023-07-20T22:57:08;23.50;62.10
58153;DHT22;43967;51.634;5.566;2023-07-20T23:02:30;23.50;62.00
58153;DHT22;43967;51.634;5.566;2023-07-20T23:07:52;23.50;61.90
58153;DHT22;43967;51.634;5.566;2023-07-20T23:13:13;23.50;61.80
58153;DHT22;43967;51.634;5.566;2023-07-20T23:18:35;23.50;61.80
58153;DHT22;43967;51.634;5.566;2023-07-20T23:23:56;23.50;61.70
58153;DHT22;43967;51.634;5.566;2023-07-20T23:29:17;23.50;61.60
58153;DHT22;43967;51.634;5.566;2023-07-20T23:34:39;23.50;61.60
58153;DHT22;43967;51.634;5.566;2023-07-20T23:40:00;23.50;61.50
58153;DHT22;43967;51.634;5.566;2023-07-20T23:45:21;23.50;61.50
58153;DHT22;43967;51.634;5.566;2023-07-20T23:50:43;23.50;61.40
58153;DHT22;43967;51.634;5.566;2023-07-20T23:56:04;23.50;61.40
